sensor_id;sensor_type;location;lat;lon;timestamp;P1;durP1;ratioP1;P2;durP2;ratioP2
67869;SDS011;54673;52.262;6.830;2023-06-22T00:02:13;5.47;;;3.97;;
67869;SDS011;54673;52.262;6.830;2023-06-22T00:04:39;5.30;;;3.60;;
67869;SDS011;54673;52.262;6.830;2023-06-22T00:07:05;5.05;;;3.88;;
67869;SDS011;54673;52.262;6.830;2023-06-22T00:09:30;4.63;;;3.70;;
67869;SDS011;54673;52.262;6.830;2023-06-22T00:11:56;6.07;;;4.33;;
67869;SDS011;54673;52.262;6.830;2023-06-22T00:14:22;4.82;;;3.50;;
67869;SDS011;54673;52.262;6.830;2023-06-22T00:16:48;5.00;;;4.00;;
67869;SDS011;54673;52.262;6.830;2023-06-22T00:19:14;6.18;;;4.03;;
67869;SDS011;54673;52.262;6.830;2023-06-22T00:21:40;5.80;;;4.37;;
67869;SDS011;54673;52.262;6.830;2023-06-22T00:24:07;6.68;;;4.07;;
67869;SDS011;54673;52.262;6.830;2023-06-22T00:26:32;6.57;;;4.07;;
67869;SDS011;54673;52.262;6.830;2023-06-22T00:28:58;5.10;;;3.80;;
67869;SDS011;54673;52.262;6.830;2023-06-22T00:31:24;4.87;;;3.90;;
67869;SDS011;54673;52.262;6.830;2023-06-22T00:33:49;4.63;;;4.15;;
67869;SDS011;54673;52.262;6.830;2023-06-22T00:36:15;6.17;;;4.73;;
67869;SDS011;54673;52.262;6.830;2023-06-22T00:38:42;5.68;;;4.50;;
67869;SDS011;54673;52.262;6.830;2023-06-22T00:41:08;7.28;;;4.65;;
67869;SDS011;54673;52.262;6.830;2023-06-22T00:43:34;5.80;;;4.70;;
67869;SDS011;54673;52.262;6.830;2023-06-22T00:45:59;5.68;;;4.97;;
67869;SDS011;54673;52.262;6.830;2023-06-22T00:48:25;5.40;;;4.90;;
67869;SDS011;54673;52.262;6.830;2023-06-22T00:50:51;8.30;;;5.03;;
67869;SDS011;54673;52.262;6.830;2023-06-22T00:53:18;7.28;;;5.20;;
67869;SDS011;54673;52.262;6.830;2023-06-22T00:55:44;6.87;;;4.67;;
67869;SDS011;54673;52.262;6.830;2023-06-22T00:58:12;5.68;;;5.03;;
67869;SDS011;54673;52.262;6.830;2023-06-22T01:00:39;7.07;;;4.80;;
67869;SDS011;54673;52.262;6.830;2023-06-22T01:03:05;7.37;;;5.17;;
67869;SDS011;54673;52.262;6.830;2023-06-22T01:05:34;5.73;;;4.60;;
67869;SDS011;54673;52.262;6.830;2023-06-22T01:13:32;6.63;;;4.53;;
67869;SDS011;54673;52.262;6.830;2023-06-22T01:16:31;6.32;;;4.63;;
67869;SDS011;54673;52.262;6.830;2023-06-22T01:19:07;4.78;;;4.28;;
67869;SDS011;54673;52.262;6.830;2023-06-22T01:21:45;5.40;;;4.50;;
67869;SDS011;54673;52.262;6.830;2023-06-22T01:24:22;6.03;;;4.15;;
67869;SDS011;54673;52.262;6.830;2023-06-22T01:27:12;4.65;;;4.07;;
67869;SDS011;54673;52.262;6.830;2023-06-22T01:29:40;5.47;;;4.10;;
67869;SDS011;54673;52.262;6.830;2023-06-22T01:32:08;6.80;;;4.30;;
67869;SDS011;54673;52.262;6.830;2023-06-22T01:34:36;6.53;;;4.50;;
67869;SDS011;54673;52.262;6.830;2023-06-22T01:37:04;5.20;;;4.45;;
67869;SDS011;54673;52.262;6.830;2023-06-22T01:39:31;5.33;;;4.20;;
67869;SDS011;54673;52.262;6.830;2023-06-22T01:41:57;4.90;;;4.40;;
67869;SDS011;54673;52.262;6.830;2023-06-22T01:44:23;5.30;;;4.40;;
67869;SDS011;54673;52.262;6.830;2023-06-22T01:46:50;5.37;;;4.83;;
67869;SDS011;54673;52.262;6.830;2023-06-22T01:49:17;6.10;;;4.68;;
67869;SDS011;54673;52.262;6.830;2023-06-22T01:51:43;5.57;;;4.63;;
67869;SDS011;54673;52.262;6.830;2023-06-22T01:54:09;6.83;;;5.00;;
67869;SDS011;54673;52.262;6.830;2023-06-22T01:56:35;5.72;;;4.95;;
67869;SDS011;54673;52.262;6.830;2023-06-22T02:02:02;7.50;;;4.95;;
67869;SDS011;54673;52.262;6.830;2023-06-22T02:07:23;9.80;;;5.90;;
67869;SDS011;54673;52.262;6.830;2023-06-22T02:09:51;5.67;;;5.00;;
67869;SDS011;54673;52.262;6.830;2023-06-22T02:12:21;7.45;;;5.43;;
67869;SDS011;54673;52.262;6.830;2023-06-22T02:14:50;5.90;;;5.25;;
67869;SDS011;54673;52.262;6.830;2023-06-22T02:17:17;7.03;;;5.50;;
67869;SDS011;54673;52.262;6.830;2023-06-22T02:19:43;7.72;;;5.40;;
67869;SDS011;54673;52.262;6.830;2023-06-22T02:22:09;8.50;;;5.35;;
67869;SDS011;54673;52.262;6.830;2023-06-22T02:24:34;6.00;;;4.90;;
67869;SDS011;54673;52.262;6.830;2023-06-22T02:27:00;9.80;;;5.83;;
67869;SDS011;54673;52.262;6.830;2023-06-22T02:29:27;8.07;;;5.60;;
67869;SDS011;54673;52.262;6.830;2023-06-22T02:31:53;5.95;;;5.10;;
67869;SDS011;54673;52.262;6.830;2023-06-22T02:34:20;7.50;;;5.18;;
67869;SDS011;54673;52.262;6.830;2023-06-22T02:36:47;5.43;;;4.73;;
67869;SDS011;54673;52.262;6.830;2023-06-22T02:39:20;6.57;;;5.40;;
67869;SDS011;54673;52.262;6.830;2023-06-22T02:41:48;5.38;;;4.88;;
67869;SDS011;54673;52.262;6.830;2023-06-22T02:44:14;6.93;;;5.03;;
67869;SDS011;54673;52.262;6.830;2023-06-22T02:46:40;5.97;;;5.32;;
67869;SDS011;54673;52.262;6.830;2023-06-22T02:49:06;5.80;;;5.13;;
67869;SDS011;54673;52.262;6.830;2023-06-22T02:51:32;6.00;;;4.63;;
67869;SDS011;54673;52.262;6.830;2023-06-22T02:53:59;7.68;;;5.35;;
67869;SDS011;54673;52.262;6.830;2023-06-22T02:56:25;10.73;;;5.43;;
67869;SDS011;54673;52.262;6.830;2023-06-22T02:58:51;7.07;;;5.30;;
67869;SDS011;54673;52.262;6.830;2023-06-22T03:01:17;6.70;;;4.70;;
67869;SDS011;54673;52.262;6.830;2023-06-22T03:03:48;7.17;;;4.77;;
67869;SDS011;54673;52.262;6.830;2023-06-22T03:06:13;6.15;;;4.70;;
67869;SDS011;54673;52.262;6.830;2023-06-22T03:08:39;6.57;;;5.00;;
67869;SDS011;54673;52.262;6.830;2023-06-22T03:11:06;6.85;;;4.50;;
67869;SDS011;54673;52.262;6.830;2023-06-22T03:13:32;7.77;;;4.93;;
67869;SDS011;54673;52.262;6.830;2023-06-22T03:15:58;8.25;;;5.18;;
67869;SDS011;54673;52.262;6.830;2023-06-22T03:18:24;5.57;;;4.80;;
67869;SDS011;54673;52.262;6.830;2023-06-22T03:20:49;7.30;;;5.40;;
67869;SDS011;54673;52.262;6.830;2023-06-22T03:23:15;7.30;;;5.80;;
67869;SDS011;54673;52.262;6.830;2023-06-22T03:25:41;6.85;;;5.68;;
67869;SDS011;54673;52.262;6.830;2023-06-22T03:28:09;8.90;;;6.77;;
67869;SDS011;54673;52.262;6.830;2023-06-22T03:30:35;8.93;;;6.63;;
67869;SDS011;54673;52.262;6.830;2023-06-22T03:33:01;8.48;;;6.70;;
67869;SDS011;54673;52.262;6.830;2023-06-22T03:35:26;10.33;;;7.03;;
67869;SDS011;54673;52.262;6.830;2023-06-22T03:37:52;9.63;;;6.68;;
67869;SDS011;54673;52.262;6.830;2023-06-22T03:40:17;9.33;;;7.20;;
67869;SDS011;54673;52.262;6.830;2023-06-22T03:42:43;8.52;;;6.63;;
67869;SDS011;54673;52.262;6.830;2023-06-22T03:45:09;9.40;;;7.03;;
67869;SDS011;54673;52.262;6.830;2023-06-22T03:47:35;8.50;;;7.13;;
67869;SDS011;54673;52.262;6.830;2023-06-22T03:50:01;8.97;;;6.50;;
67869;SDS011;54673;52.262;6.830;2023-06-22T03:52:28;9.25;;;6.57;;
67869;SDS011;54673;52.262;6.830;2023-06-22T03:54:54;9.40;;;7.10;;
67869;SDS011;54673;52.262;6.830;2023-06-22T03:57:20;10.93;;;7.37;;
67869;SDS011;54673;52.262;6.830;2023-06-22T03:59:46;9.10;;;7.18;;
67869;SDS011;54673;52.262;6.830;2023-06-22T04:02:11;10.67;;;7.87;;
67869;SDS011;54673;52.262;6.830;2023-06-22T04:04:37;10.05;;;7.28;;
67869;SDS011;54673;52.262;6.830;2023-06-22T04:07:04;11.00;;;8.03;;
67869;SDS011;54673;52.262;6.830;2023-06-22T04:09:30;15.38;;;8.35;;
67869;SDS011;54673;52.262;6.830;2023-06-22T04:11:55;10.53;;;7.67;;
67869;SDS011;54673;52.262;6.830;2023-06-22T04:14:21;9.83;;;7.63;;
67869;SDS011;54673;52.262;6.830;2023-06-22T04:16:46;10.40;;;7.80;;
67869;SDS011;54673;52.262;6.830;2023-06-22T04:19:12;10.45;;;8.48;;
67869;SDS011;54673;52.262;6.830;2023-06-22T04:21:41;9.90;;;8.37;;
67869;SDS011;54673;52.262;6.830;2023-06-22T04:24:08;12.75;;;9.10;;
67869;SDS011;54673;52.262;6.830;2023-06-22T04:26:33;10.93;;;8.77;;
67869;SDS011;54673;52.262;6.830;2023-06-22T04:29:04;11.13;;;8.40;;
67869;SDS011;54673;52.262;6.830;2023-06-22T04:31:33;12.02;;;8.80;;
67869;SDS011;54673;52.262;6.830;2023-06-22T04:34:01;10.98;;;8.75;;
67869;SDS011;54673;52.262;6.830;2023-06-22T04:36:40;13.50;;;9.43;;
67869;SDS011;54673;52.262;6.830;2023-06-22T04:39:07;16.60;;;10.40;;
67869;SDS011;54673;52.262;6.830;2023-06-22T04:41:35;15.07;;;8.70;;
67869;SDS011;54673;52.262;6.830;2023-06-22T04:44:07;15.83;;;8.90;;
67869;SDS011;54673;52.262;6.830;2023-06-22T04:46:33;12.32;;;8.77;;
67869;SDS011;54673;52.262;6.830;2023-06-22T04:49:03;10.25;;;8.20;;
67869;SDS011;54673;52.262;6.830;2023-06-22T04:51:31;11.03;;;8.47;;
67869;SDS011;54673;52.262;6.830;2023-06-22T04:53:57;11.27;;;8.07;;
67869;SDS011;54673;52.262;6.830;2023-06-22T04:56:26;9.90;;;7.75;;
67869;SDS011;54673;52.262;6.830;2023-06-22T04:58:53;12.05;;;7.75;;
67869;SDS011;54673;52.262;6.830;2023-06-22T05:01:22;12.97;;;8.27;;
67869;SDS011;54673;52.262;6.830;2023-06-22T05:03:48;11.48;;;8.25;;
67869;SDS011;54673;52.262;6.830;2023-06-22T05:06:14;9.98;;;7.90;;
67869;SDS011;54673;52.262;6.830;2023-06-22T05:08:40;10.03;;;8.00;;
67869;SDS011;54673;52.262;6.830;2023-06-22T05:11:05;10.10;;;7.85;;
67869;SDS011;54673;52.262;6.830;2023-06-22T05:13:31;13.60;;;8.67;;
67869;SDS011;54673;52.262;6.830;2023-06-22T05:15:57;12.00;;;7.90;;
67869;SDS011;54673;52.262;6.830;2023-06-22T05:18:29;10.43;;;7.70;;
67869;SDS011;54673;52.262;6.830;2023-06-22T05:20:55;12.20;;;8.20;;
67869;SDS011;54673;52.262;6.830;2023-06-22T05:23:22;13.93;;;8.00;;
67869;SDS011;54673;52.262;6.830;2023-06-22T05:25:47;11.25;;;7.80;;
67869;SDS011;54673;52.262;6.830;2023-06-22T05:28:13;9.60;;;6.80;;
67869;SDS011;54673;52.262;6.830;2023-06-22T05:30:38;10.63;;;6.50;;
67869;SDS011;54673;52.262;6.830;2023-06-22T05:33:04;9.63;;;6.53;;
67869;SDS011;54673;52.262;6.830;2023-06-22T05:35:30;8.97;;;6.47;;
67869;SDS011;54673;52.262;6.830;2023-06-22T05:37:56;8.30;;;6.40;;
67869;SDS011;54673;52.262;6.830;2023-06-22T05:40:21;9.57;;;5.87;;
67869;SDS011;54673;52.262;6.830;2023-06-22T05:42:47;8.52;;;6.53;;
67869;SDS011;54673;52.262;6.830;2023-06-22T05:45:12;9.47;;;6.70;;
67869;SDS011;54673;52.262;6.830;2023-06-22T05:47:38;7.82;;;6.35;;
67869;SDS011;54673;52.262;6.830;2023-06-22T05:50:04;10.97;;;6.10;;
67869;SDS011;54673;52.262;6.830;2023-06-22T05:52:32;9.32;;;6.15;;
67869;SDS011;54673;52.262;6.830;2023-06-22T05:54:57;7.65;;;5.25;;
67869;SDS011;54673;52.262;6.830;2023-06-22T05:57:23;7.07;;;5.00;;
67869;SDS011;54673;52.262;6.830;2023-06-22T05:59:49;10.18;;;5.70;;
67869;SDS011;54673;52.262;6.830;2023-06-22T06:02:14;6.57;;;5.50;;
67869;SDS011;54673;52.262;6.830;2023-06-22T06:04:40;7.00;;;5.00;;
67869;SDS011;54673;52.262;6.830;2023-06-22T06:07:05;6.38;;;4.72;;
67869;SDS011;54673;52.262;6.830;2023-06-22T06:09:32;8.33;;;4.60;;
67869;SDS011;54673;52.262;6.830;2023-06-22T06:11:57;6.53;;;4.80;;
67869;SDS011;54673;52.262;6.830;2023-06-22T06:14:23;7.60;;;4.93;;
67869;SDS011;54673;52.262;6.830;2023-06-22T06:16:49;6.73;;;4.80;;
67869;SDS011;54673;52.262;6.830;2023-06-22T06:19:14;7.32;;;4.80;;
67869;SDS011;54673;52.262;6.830;2023-06-22T06:21:40;11.70;;;5.07;;
67869;SDS011;54673;52.262;6.830;2023-06-22T06:24:06;6.90;;;4.47;;
67869;SDS011;54673;52.262;6.830;2023-06-22T06:26:31;7.07;;;4.43;;
67869;SDS011;54673;52.262;6.830;2023-06-22T06:28:58;8.23;;;4.47;;
67869;SDS011;54673;52.262;6.830;2023-06-22T06:31:25;5.93;;;4.17;;
67869;SDS011;54673;52.262;6.830;2023-06-22T06:33:53;5.68;;;4.45;;
67869;SDS011;54673;52.262;6.830;2023-06-22T06:36:19;7.25;;;4.70;;
67869;SDS011;54673;52.262;6.830;2023-06-22T06:38:45;6.80;;;4.87;;
67869;SDS011;54673;52.262;6.830;2023-06-22T06:41:13;7.13;;;4.20;;
67869;SDS011;54673;52.262;6.830;2023-06-22T06:43:40;5.53;;;4.30;;
67869;SDS011;54673;52.262;6.830;2023-06-22T06:46:07;10.30;;;4.77;;
67869;SDS011;54673;52.262;6.830;2023-06-22T06:48:33;12.07;;;4.65;;
67869;SDS011;54673;52.262;6.830;2023-06-22T06:50:59;6.63;;;4.20;;
67869;SDS011;54673;52.262;6.830;2023-06-22T06:53:25;10.10;;;4.97;;
67869;SDS011;54673;52.262;6.830;2023-06-22T06:55:50;8.63;;;4.33;;
67869;SDS011;54673;52.262;6.830;2023-06-22T06:58:16;6.50;;;4.35;;
67869;SDS011;54673;52.262;6.830;2023-06-22T07:00:41;8.07;;;4.60;;
67869;SDS011;54673;52.262;6.830;2023-06-22T07:03:08;9.60;;;5.30;;
67869;SDS011;54673;52.262;6.830;2023-06-22T07:05:34;7.13;;;5.70;;
67869;SDS011;54673;52.262;6.830;2023-06-22T07:08:00;6.78;;;4.70;;
67869;SDS011;54673;52.262;6.830;2023-06-22T07:10:26;10.27;;;4.72;;
67869;SDS011;54673;52.262;6.830;2023-06-22T07:12:53;7.57;;;4.67;;
67869;SDS011;54673;52.262;6.830;2023-06-22T07:15:18;7.00;;;4.43;;
67869;SDS011;54673;52.262;6.830;2023-06-22T07:17:44;5.83;;;4.67;;
67869;SDS011;54673;52.262;6.830;2023-06-22T07:20:09;6.13;;;4.25;;
67869;SDS011;54673;52.262;6.830;2023-06-22T07:22:40;6.63;;;4.43;;
67869;SDS011;54673;52.262;6.830;2023-06-22T07:25:07;5.97;;;4.15;;
67869;SDS011;54673;52.262;6.830;2023-06-22T07:27:39;5.57;;;4.20;;
67869;SDS011;54673;52.262;6.830;2023-06-22T07:30:10;5.87;;;4.37;;
67869;SDS011;54673;52.262;6.830;2023-06-22T07:32:36;6.57;;;4.63;;
67869;SDS011;54673;52.262;6.830;2023-06-22T07:35:02;9.93;;;5.50;;
67869;SDS011;54673;52.262;6.830;2023-06-22T07:37:29;8.77;;;5.15;;
67869;SDS011;54673;52.262;6.830;2023-06-22T07:39:55;5.73;;;5.00;;
67869;SDS011;54673;52.262;6.830;2023-06-22T07:42:26;6.82;;;5.15;;
67869;SDS011;54673;52.262;6.830;2023-06-22T07:44:57;8.07;;;5.20;;
67869;SDS011;54673;52.262;6.830;2023-06-22T07:47:23;9.37;;;5.17;;
67869;SDS011;54673;52.262;6.830;2023-06-22T07:49:53;7.05;;;4.78;;
67869;SDS011;54673;52.262;6.830;2023-06-22T07:52:24;6.70;;;4.27;;
67869;SDS011;54673;52.262;6.830;2023-06-22T07:54:50;6.37;;;4.57;;
67869;SDS011;54673;52.262;6.830;2023-06-22T07:57:16;7.25;;;5.22;;
67869;SDS011;54673;52.262;6.830;2023-06-22T07:59:42;8.33;;;5.00;;
67869;SDS011;54673;52.262;6.830;2023-06-22T08:02:07;7.90;;;4.35;;
67869;SDS011;54673;52.262;6.830;2023-06-22T08:04:34;14.50;;;4.63;;
67869;SDS011;54673;52.262;6.830;2023-06-22T08:07:00;7.60;;;4.50;;
67869;SDS011;54673;52.262;6.830;2023-06-22T08:09:27;6.23;;;4.20;;
67869;SDS011;54673;52.262;6.830;2023-06-22T08:11:54;5.55;;;3.90;;
67869;SDS011;54673;52.262;6.830;2023-06-22T08:14:21;6.20;;;4.47;;
67869;SDS011;54673;52.262;6.830;2023-06-22T08:16:48;6.30;;;4.80;;
67869;SDS011;54673;52.262;6.830;2023-06-22T08:19:13;7.53;;;4.60;;
67869;SDS011;54673;52.262;6.830;2023-06-22T08:21:39;6.07;;;4.23;;
67869;SDS011;54673;52.262;6.830;2023-06-22T08:24:05;4.72;;;4.03;;
67869;SDS011;54673;52.262;6.830;2023-06-22T08:26:32;5.20;;;4.20;;
67869;SDS011;54673;52.262;6.830;2023-06-22T08:29:01;5.80;;;4.13;;
67869;SDS011;54673;52.262;6.830;2023-06-22T08:31:27;6.15;;;4.32;;
67869;SDS011;54673;52.262;6.830;2023-06-22T08:33:52;10.57;;;4.30;;
67869;SDS011;54673;52.262;6.830;2023-06-22T08:36:18;4.78;;;3.80;;
67869;SDS011;54673;52.262;6.830;2023-06-22T08:38:43;6.67;;;4.27;;
67869;SDS011;54673;52.262;6.830;2023-06-22T08:41:09;6.18;;;4.50;;
67869;SDS011;54673;52.262;6.830;2023-06-22T08:43:35;6.30;;;4.20;;
67869;SDS011;54673;52.262;6.830;2023-06-22T08:46:01;5.75;;;4.43;;
67869;SDS011;54673;52.262;6.830;2023-06-22T08:48:27;5.23;;;3.93;;
67869;SDS011;54673;52.262;6.830;2023-06-22T08:50:53;12.57;;;5.30;;
67869;SDS011;54673;52.262;6.830;2023-06-22T08:53:19;9.05;;;5.78;;
67869;SDS011;54673;52.262;6.830;2023-06-22T08:55:45;8.10;;;5.47;;
67869;SDS011;54673;52.262;6.830;2023-06-22T08:58:10;7.65;;;5.13;;
67869;SDS011;54673;52.262;6.830;2023-06-22T09:00:36;7.37;;;5.00;;
67869;SDS011;54673;52.262;6.830;2023-06-22T09:03:02;6.55;;;5.25;;
67869;SDS011;54673;52.262;6.830;2023-06-22T09:05:28;8.67;;;5.63;;
67869;SDS011;54673;52.262;6.830;2023-06-22T09:07:54;10.75;;;5.57;;
67869;SDS011;54673;52.262;6.830;2023-06-22T09:10:21;9.57;;;6.20;;
67869;SDS011;54673;52.262;6.830;2023-06-22T09:12:47;7.93;;;5.77;;
67869;SDS011;54673;52.262;6.830;2023-06-22T09:15:12;8.95;;;5.88;;
67869;SDS011;54673;52.262;6.830;2023-06-22T09:17:38;11.17;;;5.90;;
67869;SDS011;54673;52.262;6.830;2023-06-22T09:20:04;8.23;;;5.60;;
67869;SDS011;54673;52.262;6.830;2023-06-22T09:22:30;7.18;;;5.22;;
67869;SDS011;54673;52.262;6.830;2023-06-22T09:24:56;7.05;;;5.07;;
67869;SDS011;54673;52.262;6.830;2023-06-22T09:27:23;7.23;;;5.20;;
67869;SDS011;54673;52.262;6.830;2023-06-22T09:29:49;7.37;;;5.57;;
67869;SDS011;54673;52.262;6.830;2023-06-22T09:32:15;9.90;;;6.32;;
67869;SDS011;54673;52.262;6.830;2023-06-22T09:34:40;7.77;;;5.90;;
67869;SDS011;54673;52.262;6.830;2023-06-22T09:37:06;9.00;;;5.53;;
67869;SDS011;54673;52.262;6.830;2023-06-22T09:39:32;6.17;;;5.50;;
67869;SDS011;54673;52.262;6.830;2023-06-22T09:42:00;8.30;;;5.63;;
67869;SDS011;54673;52.262;6.830;2023-06-22T09:44:26;10.05;;;5.35;;
67869;SDS011;54673;52.262;6.830;2023-06-22T09:46:51;8.60;;;5.30;;
67869;SDS011;54673;52.262;6.830;2023-06-22T09:49:17;7.40;;;5.03;;
67869;SDS011;54673;52.262;6.830;2023-06-22T09:51:43;7.87;;;5.30;;
67869;SDS011;54673;52.262;6.830;2023-06-22T09:54:08;9.32;;;5.10;;
67869;SDS011;54673;52.262;6.830;2023-06-22T09:56:34;9.03;;;5.40;;
67869;SDS011;54673;52.262;6.830;2023-06-22T09:58:59;13.75;;;5.82;;
67869;SDS011;54673;52.262;6.830;2023-06-22T10:01:25;8.73;;;5.33;;
67869;SDS011;54673;52.262;6.830;2023-06-22T10:03:52;8.27;;;5.70;;
67869;SDS011;54673;52.262;6.830;2023-06-22T10:06:20;10.53;;;5.50;;
67869;SDS011;54673;52.262;6.830;2023-06-22T10:08:46;7.35;;;5.20;;
67869;SDS011;54673;52.262;6.830;2023-06-22T10:11:13;7.57;;;5.70;;
67869;SDS011;54673;52.262;6.830;2023-06-22T10:13:38;9.68;;;5.20;;
67869;SDS011;54673;52.262;6.830;2023-06-22T10:16:04;8.20;;;4.90;;
67869;SDS011;54673;52.262;6.830;2023-06-22T10:18:30;6.18;;;4.80;;
67869;SDS011;54673;52.262;6.830;2023-06-22T10:20:55;8.47;;;5.07;;
67869;SDS011;54673;52.262;6.830;2023-06-22T10:23:21;8.77;;;5.13;;
67869;SDS011;54673;52.262;6.830;2023-06-22T10:25:47;10.27;;;4.80;;
67869;SDS011;54673;52.262;6.830;2023-06-22T10:28:13;11.20;;;4.60;;
67869;SDS011;54673;52.262;6.830;2023-06-22T10:30:39;12.85;;;5.00;;
67869;SDS011;54673;52.262;6.830;2023-06-22T10:33:09;10.10;;;4.90;;
67869;SDS011;54673;52.262;6.830;2023-06-22T10:35:35;16.87;;;4.57;;
67869;SDS011;54673;52.262;6.830;2023-06-22T10:38:02;12.57;;;4.53;;
67869;SDS011;54673;52.262;6.830;2023-06-22T10:40:29;7.22;;;4.32;;
67869;SDS011;54673;52.262;6.830;2023-06-22T10:42:54;13.73;;;4.57;;
67869;SDS011;54673;52.262;6.830;2023-06-22T10:45:20;12.30;;;4.68;;
67869;SDS011;54673;52.262;6.830;2023-06-22T10:47:46;12.27;;;5.30;;
67869;SDS011;54673;52.262;6.830;2023-06-22T10:50:11;8.98;;;4.70;;
67869;SDS011;54673;52.262;6.830;2023-06-22T10:52:37;6.77;;;5.10;;
67869;SDS011;54673;52.262;6.830;2023-06-22T10:55:03;6.38;;;4.60;;
67869;SDS011;54673;52.262;6.830;2023-06-22T10:57:29;10.55;;;5.18;;
67869;SDS011;54673;52.262;6.830;2023-06-22T10:59:55;6.20;;;4.47;;
67869;SDS011;54673;52.262;6.830;2023-06-22T11:02:20;7.97;;;4.43;;
67869;SDS011;54673;52.262;6.830;2023-06-22T11:04:46;8.70;;;4.55;;
67869;SDS011;54673;52.262;6.830;2023-06-22T11:07:12;6.50;;;4.23;;
67869;SDS011;54673;52.262;6.830;2023-06-22T11:09:38;8.63;;;4.40;;
67869;SDS011;54673;52.262;6.830;2023-06-22T11:12:04;9.90;;;4.38;;
67869;SDS011;54673;52.262;6.830;2023-06-22T11:14:31;13.35;;;4.82;;
67869;SDS011;54673;52.262;6.830;2023-06-22T11:16:58;14.87;;;4.83;;
67869;SDS011;54673;52.262;6.830;2023-06-22T11:19:24;16.77;;;5.32;;
67869;SDS011;54673;52.262;6.830;2023-06-22T11:21:50;13.30;;;5.05;;
67869;SDS011;54673;52.262;6.830;2023-06-22T11:24:16;8.73;;;4.80;;
67869;SDS011;54673;52.262;6.830;2023-06-22T11:26:42;10.85;;;5.13;;
67869;SDS011;54673;52.262;6.830;2023-06-22T11:29:08;11.97;;;5.70;;
67869;SDS011;54673;52.262;6.830;2023-06-22T11:31:34;9.93;;;5.50;;
67869;SDS011;54673;52.262;6.830;2023-06-22T11:34:00;7.07;;;5.10;;
67869;SDS011;54673;52.262;6.830;2023-06-22T11:36:26;8.60;;;5.20;;
67869;SDS011;54673;52.262;6.830;2023-06-22T11:38:52;10.32;;;5.45;;
67869;SDS011;54673;52.262;6.830;2023-06-22T11:41:17;8.97;;;5.67;;
67869;SDS011;54673;52.262;6.830;2023-06-22T11:43:43;8.23;;;5.87;;
67869;SDS011;54673;52.262;6.830;2023-06-22T11:46:09;8.75;;;5.88;;
67869;SDS011;54673;52.262;6.830;2023-06-22T11:48:35;8.67;;;6.00;;
67869;SDS011;54673;52.262;6.830;2023-06-22T11:51:01;8.05;;;5.35;;
67869;SDS011;54673;52.262;6.830;2023-06-22T11:53:28;6.80;;;5.32;;
67869;SDS011;54673;52.262;6.830;2023-06-22T11:55:54;11.53;;;6.83;;
67869;SDS011;54673;52.262;6.830;2023-06-22T11:58:20;7.78;;;6.38;;
67869;SDS011;54673;52.262;6.830;2023-06-22T12:00:45;8.35;;;6.50;;
67869;SDS011;54673;52.262;6.830;2023-06-22T12:03:11;10.27;;;6.67;;
67869;SDS011;54673;52.262;6.830;2023-06-22T12:05:37;13.47;;;6.33;;
67869;SDS011;54673;52.262;6.830;2023-06-22T12:08:03;14.17;;;5.57;;
67869;SDS011;54673;52.262;6.830;2023-06-22T12:10:29;10.13;;;5.53;;
67869;SDS011;54673;52.262;6.830;2023-06-22T12:12:54;8.90;;;5.90;;
67869;SDS011;54673;52.262;6.830;2023-06-22T12:15:22;9.65;;;6.55;;
67869;SDS011;54673;52.262;6.830;2023-06-22T12:17:48;10.40;;;6.30;;
67869;SDS011;54673;52.262;6.830;2023-06-22T12:20:13;8.90;;;5.95;;
67869;SDS011;54673;52.262;6.830;2023-06-22T12:22:40;10.53;;;6.43;;
67869;SDS011;54673;52.262;6.830;2023-06-22T12:25:07;8.32;;;6.22;;
67869;SDS011;54673;52.262;6.830;2023-06-22T12:27:34;10.45;;;6.75;;
67869;SDS011;54673;52.262;6.830;2023-06-22T12:30:00;7.83;;;6.33;;
67869;SDS011;54673;52.262;6.830;2023-06-22T12:32:26;8.95;;;6.70;;
67869;SDS011;54673;52.262;6.830;2023-06-22T12:34:51;17.67;;;6.63;;
67869;SDS011;54673;52.262;6.830;2023-06-22T12:37:17;10.27;;;6.37;;
67869;SDS011;54673;52.262;6.830;2023-06-22T12:39:43;8.57;;;6.72;;
67869;SDS011;54673;52.262;6.830;2023-06-22T12:42:09;8.07;;;6.53;;
67869;SDS011;54673;52.262;6.830;2023-06-22T12:44:37;11.02;;;7.30;;
67869;SDS011;54673;52.262;6.830;2023-06-22T12:47:03;11.93;;;6.50;;
67869;SDS011;54673;52.262;6.830;2023-06-22T12:49:28;9.23;;;6.40;;
67869;SDS011;54673;52.262;6.830;2023-06-22T12:51:54;8.48;;;5.97;;
67869;SDS011;54673;52.262;6.830;2023-06-22T12:54:20;7.70;;;6.40;;
67869;SDS011;54673;52.262;6.830;2023-06-22T12:56:45;12.73;;;6.93;;
67869;SDS011;54673;52.262;6.830;2023-06-22T12:59:12;10.80;;;6.30;;
67869;SDS011;54673;52.262;6.830;2023-06-22T13:01:37;9.00;;;6.57;;
67869;SDS011;54673;52.262;6.830;2023-06-22T13:04:03;7.87;;;6.20;;
67869;SDS011;54673;52.262;6.830;2023-06-22T13:06:29;11.77;;;6.60;;
67869;SDS011;54673;52.262;6.830;2023-06-22T13:08:54;9.57;;;5.83;;
67869;SDS011;54673;52.262;6.830;2023-06-22T13:11:20;10.05;;;6.13;;
67869;SDS011;54673;52.262;6.830;2023-06-22T13:13:46;9.07;;;6.50;;
67869;SDS011;54673;52.262;6.830;2023-06-22T13:16:12;7.95;;;6.13;;
67869;SDS011;54673;52.262;6.830;2023-06-22T13:18:38;8.05;;;6.40;;
67869;SDS011;54673;52.262;6.830;2023-06-22T13:21:04;9.13;;;7.27;;
67869;SDS011;54673;52.262;6.830;2023-06-22T13:23:30;11.57;;;6.90;;
67869;SDS011;54673;52.262;6.830;2023-06-22T13:25:57;9.43;;;7.07;;
67869;SDS011;54673;52.262;6.830;2023-06-22T13:28:25;10.53;;;7.33;;
67869;SDS011;54673;52.262;6.830;2023-06-22T13:30:51;12.75;;;7.35;;
67869;SDS011;54673;52.262;6.830;2023-06-22T13:33:16;11.70;;;6.17;;
67869;SDS011;54673;52.262;6.830;2023-06-22T13:35:42;11.10;;;5.93;;
67869;SDS011;54673;52.262;6.830;2023-06-22T13:38:08;10.00;;;6.50;;
67869;SDS011;54673;52.262;6.830;2023-06-22T13:40:34;11.77;;;6.63;;
67869;SDS011;54673;52.262;6.830;2023-06-22T13:43:00;9.38;;;6.40;;
67869;SDS011;54673;52.262;6.830;2023-06-22T13:45:26;10.43;;;7.00;;
67869;SDS011;54673;52.262;6.830;2023-06-22T13:47:52;13.02;;;7.47;;
67869;SDS011;54673;52.262;6.830;2023-06-22T13:50:17;11.63;;;6.67;;
67869;SDS011;54673;52.262;6.830;2023-06-22T13:52:43;11.10;;;7.18;;
67869;SDS011;54673;52.262;6.830;2023-06-22T13:55:09;9.87;;;7.93;;
67869;SDS011;54673;52.262;6.830;2023-06-22T13:57:35;11.77;;;7.78;;
67869;SDS011;54673;52.262;6.830;2023-06-22T14:00:01;11.98;;;8.00;;
67869;SDS011;54673;52.262;6.830;2023-06-22T14:02:28;12.00;;;7.80;;
67869;SDS011;54673;52.262;6.830;2023-06-22T14:04:54;11.30;;;7.72;;
67869;SDS011;54673;52.262;6.830;2023-06-22T14:07:19;11.17;;;8.07;;
67869;SDS011;54673;52.262;6.830;2023-06-22T14:09:46;12.82;;;7.90;;
67869;SDS011;54673;52.262;6.830;2023-06-22T14:12:11;14.45;;;7.82;;
67869;SDS011;54673;52.262;6.830;2023-06-22T14:14:38;10.63;;;7.30;;
67869;SDS011;54673;52.262;6.830;2023-06-22T14:17:04;11.90;;;7.43;;
67869;SDS011;54673;52.262;6.830;2023-06-22T14:19:30;11.57;;;7.50;;
67869;SDS011;54673;52.262;6.830;2023-06-22T14:21:55;13.77;;;7.30;;
67869;SDS011;54673;52.262;6.830;2023-06-22T14:24:22;10.30;;;7.93;;
67869;SDS011;54673;52.262;6.830;2023-06-22T14:26:48;10.43;;;8.45;;
67869;SDS011;54673;52.262;6.830;2023-06-22T14:29:13;13.50;;;8.90;;
67869;SDS011;54673;52.262;6.830;2023-06-22T14:31:39;15.43;;;8.40;;
67869;SDS011;54673;52.262;6.830;2023-06-22T14:34:05;12.20;;;7.53;;
67869;SDS011;54673;52.262;6.830;2023-06-22T14:36:31;13.88;;;7.90;;
67869;SDS011;54673;52.262;6.830;2023-06-22T14:38:56;10.30;;;7.47;;
67869;SDS011;54673;52.262;6.830;2023-06-22T14:41:22;13.45;;;8.18;;
67869;SDS011;54673;52.262;6.830;2023-06-22T14:43:48;11.10;;;7.20;;
67869;SDS011;54673;52.262;6.830;2023-06-22T14:46:15;9.55;;;7.03;;
67869;SDS011;54673;52.262;6.830;2023-06-22T14:48:42;9.20;;;7.30;;
67869;SDS011;54673;52.262;6.830;2023-06-22T14:51:08;10.53;;;6.80;;